Time;durP1;ratioP1;P1;durP2;ratioP2;P2;SDS_P1;SDS_P2;PMS_P1;PMS_P2;Temp;Humidity;BMP_temperature;BMP_pressure;BME280_temperature;BME280_humidity;BME280_pressure;Samples;Min_cycle;Max_cycle;Signal;HPM_P1;HPM_P2
2022/07/06 03:58:11;;;;;;;9.88;4.60;;;;;;;20.11;75.27;96754.25;4940783;28;20062;-67
2022/07/06 04:04:50;;;;;;;5.95;3.78;;;;;;;20.20;74.11;96748.88;4947294;29;20454;-65
2022/07/06 04:07:20;;;;;;;6.05;4.85;;;;;;;20.25;73.44;96751.16;4947428;29;20063;-65
2022/07/06 04:10:10;;;;;;;6.50;4.53;;;;;;;19.99;75.42;96755.78;4947289;29;20054;-66
2022/07/06 04:13:25;;;;;;;6.35;3.83;;;;;;;20.20;73.55;96748.88;4947654;29;20081;-67
2022/07/06 04:15:54;;;;;;;8.95;4.55;;;;;;;20.46;72.77;96753.41;4947141;29;20062;-66
2022/07/06 04:18:30;;;;;;;12.55;4.50;;;;;;;20.67;71.25;96758.47;4947699;29;20059;-66
2022/07/06 04:20:58;;;;;;;5.95;4.40;;;;;;;20.23;69.01;96643.91;4947308;29;20059;-67
2022/07/06 05:40:27;;;;;;;;;;;;;;;25.43;56.36;96794.56;4925104;29;20122;-69
2022/07/06 05:42:54;;;;;;;17.27;7.50;;;;;;;25.26;55.91;96806.19;4927083;29;19926;-68
2022/07/06 05:45:22;;;;;;;21.58;6.68;;;;;;;24.47;60.43;96809.19;4926693;29;20159;-68
2022/07/06 05:50:34;;;;;;;9.93;5.35;;;;;;;25.08;60.85;96802.56;4932952;29;20534;-68
2022/07/06 05:53:03;;;;;;;7.50;4.88;;;;;;;24.73;60.23;96765.22;4926484;29;20064;-69
2022/07/06 05:55:43;;;;;;;8.10;5.68;;;;;;;25.77;57.11;96800.66;4915138;29;20086;-68
2022/07/06 05:58:09;;;;;;;6.05;5.15;;;;;;;26.49;54.55;96808.16;4928960;29;20068;-68
2022/07/06 06:00:36;;;;;;;10.63;6.65;;;;;;;26.52;53.99;96801.50;4920464;29;20056;-72
2022/07/06 06:03:03;;;;;;;6.25;5.68;;;;;;;26.56;53.21;96728.22;4923807;29;20075;-69
2022/07/06 06:05:30;;;;;;;11.35;6.63;;;;;;;27.36;52.17;96797.16;4930049;29;20055;-69
2022/07/06 06:07:57;;;;;;;7.95;6.60;;;;;;;27.74;51.09;96799.97;4919614;29;20579;-70
2022/07/06 06:10:24;;;;;;;6.80;6.20;;;;;;;25.93;49.83;96481.56;4911330;29;20056;-69
2022/07/06 06:12:52;;;;;;;6.95;5.80;;;;;;;28.26;49.10;96794.69;4914076;29;20518;-74
2022/07/06 06:15:19;;;;;;;7.15;6.18;;;;;;;27.52;48.56;96668.63;4914004;29;20520;-74
2022/07/06 06:17:46;;;;;;;10.23;6.13;;;;;;;28.66;48.02;96752.06;4912205;29;20051;-70
2022/07/06 06:20:14;;;;;;;9.63;6.82;;;;;;;29.30;47.10;96793.41;4922535;29;20139;-69
2022/07/06 06:23:00;;;;;;;7.80;5.93;;;;;;;28.90;46.53;96695.59;4918681;29;20064;-68
2022/07/06 06:25:38;;;;;;;7.07;6.47;;;;;;;29.64;46.14;96765.22;4912182;29;20052;-68
2022/07/06 06:32:57;;;;;;;;;;;;;;;;;;;;;
2022/07/06 06:47:14;;;;;;;7.50;6.80;;;;;;;29.34;46.20;96804.56;4934212;28;20058;-72
2022/07/06 12:10:52;;;;;;;5.60;5.07;;;;;;;28.21;48.28;96761.19;4946799;29;20141;-79
2022/07/06 13:52:52;;;;;;;7.32;6.22;;;;;;;31.30;40.38;96659.25;4929333;28;20066;-79
2022/07/06 13:55:19;;;;;;;7.50;6.55;;;;;;;32.07;39.88;96652.81;4940702;29;20082;-72
2022/07/06 13:57:48;;;;;;;7.28;6.47;;;;;;;31.85;39.71;96664.28;4943098;29;20055;-71
2022/07/06 14:00:18;;;;;;;7.60;6.80;;;;;;;31.74;39.87;96658.53;4942737;29;20066;-70
2022/07/06 14:06:50;;;;;;;7.93;6.57;;;;;;;29.12;40.84;96320.06;4917328;29;20063;-74
2022/07/06 14:09:41;;;;;;;9.27;8.38;;;;;;;30.27;44.27;96661.88;4879375;29;20057;-68
2022/07/06 14:12:09;;;;;;;8.57;7.80;;;;;;;30.78;43.03;96607.31;4913634;29;20059;-75
2022/07/06 14:14:36;;;;;;;10.32;7.82;;;;;;;31.13;42.83;96660.47;4949059;29;20055;-68
2022/07/06 14:17:10;;;;;;;8.63;7.82;;;;;;;30.90;43.48;96660.41;4947606;29;20715;-75
2022/07/06 14:19:38;;;;;;;8.43;7.43;;;;;;;29.22;46.40;96671.59;4948829;29;20453;-75
2022/07/06 14:26:47;;;;;;;11.65;9.70;;;;;;;27.86;51.20;96675.69;4888693;29;20087;-76
2022/07/06 14:52:25;;;;;;;7.00;6.30;;;;;;;25.90;52.07;96485.38;4947167;29;20094;-69
2022/07/06 14:58:43;;;;;;;7.93;7.13;;;;;;;27.01;51.93;96667.41;4946352;29;20058;-75
2022/07/06 15:05:43;;;;;;;6.57;5.97;;;;;;;26.65;53.39;96657.94;4948301;29;20045;-74
2022/07/06 15:08:43;;;;;;;;;;;;;;;;;;;;;
2022/07/06 15:11:50;;;;;;;9.63;6.70;;;;;;;27.19;52.23;96656.63;4910217;29;20140;-69
2022/07/06 15:18:18;;;;;;;8.95;7.70;;;;;;;27.52;52.29;96668.63;4917429;29;20158;-68
2022/07/06 15:20:46;;;;;;;8.98;6.78;;;;;;;27.62;51.90;96672.97;4948051;28;20067;-75
2022/07/06 15:23:39;;;;;;;8.88;6.88;;;;;;;27.90;51.10;96674.22;4948377;29;20138;-68
2022/07/06 15:31:16;;;;;;;8.63;6.22;;;;;;;28.59;49.00;96669.78;4796279;29;20062;-75
2022/07/06 15:33:46;;;;;;;11.60;6.78;;;;;;;30.00;46.66;96673.91;4759894;29;20062;-69
2022/07/06 15:44:34;;;;;;;8.02;6.47;;;;;;;29.97;44.61;96652.03;4997802;28;20053;-76
2022/07/06 15:51:47;;;;;;;7.35;6.65;;;;;;;30.49;44.00;96670.59;5018217;28;20092;-75
2022/07/06 16:29:40;;;;;;;9.80;7.50;;;;;;;28.36;49.06;96690.72;4959768;28;20050;-70
2022/07/06 16:44:21;;;;;;;9.93;7.75;;;;;;;27.42;53.01;96704.19;5060908;28;20070;-70
2022/07/06 16:46:48;;;;;;;9.52;7.93;;;;;;;27.47;53.05;96700.66;5072856;28;20048;-70
2022/07/06 16:49:16;;;;;;;10.18;7.82;;;;;;;27.51;52.80;96700.44;5067080;28;20134;-75
2022/07/06 16:51:43;;;;;;;11.30;8.60;;;;;;;27.20;53.10;96678.13;5048761;28;20052;-70
2022/07/06 16:54:11;;;;;;;11.82;8.73;;;;;;;26.53;53.40;96576.56;5066549;28;20076;-70
2022/07/06 16:56:38;;;;;;;10.07;8.50;;;;;;;27.37;53.79;96710.53;5066890;28;20048;-75
2022/07/06 18:51:41;;;;;;;17.35;12.80;;;;;;;22.60;85.08;96763.81;4972553;28;20138;-74
2022/07/06 18:54:08;;;;;;;18.40;13.93;;;;;;;22.32;85.16;96730.88;4985484;28;20062;-74
2022/07/06 18:56:34;;;;;;;17.48;13.18;;;;;;;22.54;85.05;96747.91;4985605;28;20069;-74
2022/07/06 18:59:01;;;;;;;18.75;14.00;;;;;;;21.95;84.56;96667.66;4985732;28;20064;-69
2022/07/06 19:01:28;;;;;;;19.20;14.02;;;;;;;22.29;83.42;96707.19;4985610;28;20058;-74
2022/07/06 19:03:55;;;;;;;17.90;13.05;;;;;;;22.27;82.88;96706.06;4986106;28;20055;-75
2022/07/06 19:06:21;;;;;;;17.15;12.95;;;;;;;21.72;82.90;96625.69;4985489;28;20185;-75
2022/07/06 19:08:48;;;;;;;15.88;12.95;;;;;;;21.33;83.07;96575.44;4985418;28;20087;-70
2022/07/06 19:11:15;;;;;;;19.25;13.40;;;;;;;22.25;83.00;96720.63;5004640;28;20145;-70
2022/07/06 19:13:47;;;;;;;17.70;12.70;;;;;;;22.49;82.93;96747.19;4988028;28;20531;-75
2022/07/06 19:16:14;;;;;;;18.08;14.93;;;;;;;22.58;81.42;96759.84;4986847;28;20062;-75
2022/07/06 19:18:41;;;;;;;16.17;13.23;;;;;;;22.00;81.23;96686.78;5004593;28;20559;-75
2022/07/06 19:21:07;;;;;;;17.23;13.50;;;;;;;21.26;80.14;96570.03;5004425;28;20093;-70
2022/07/06 19:23:34;;;;;;;16.67;13.65;;;;;;;21.87;79.24;96666.31;5004857;28;20065;-74
2022/07/06 19:26:05;;;;;;;18.13;13.45;;;;;;;22.49;79.14;96758.50;4986683;28;20535;-74
2022/07/06 19:28:32;;;;;;;17.20;13.77;;;;;;;21.92;79.00;96674.19;5004881;28;20054;-70
2022/07/06 19:30:59;;;;;;;16.27;13.23;;;;;;;22.09;80.00;96836.44;5004219;28;20555;-75
2022/07/06 19:33:27;;;;;;;16.00;13.02;;;;;;;22.51;79.01;96777.81;5004838;28;20069;-75
2022/07/06 19:35:56;;;;;;;17.38;14.38;;;;;;;21.21;79.27;96590.34;5004417;28;20065;-70
2022/07/06 19:38:22;;;;;;;16.48;12.57;;;;;;;22.31;79.91;96778.09;5004961;28;20074;-74
2022/07/06 19:40:49;;;;;;;16.27;13.50;;;;;;;22.27;80.14;96777.38;5004968;28;20053;-75
2022/07/06 19:43:16;;;;;;;17.80;13.82;;;;;;;22.16;80.70;96790.28;5005237;28;20054;-70
2022/07/06 19:45:43;;;;;;;18.13;13.80;;;;;;;21.49;80.47;96668.34;5005112;28;20058;-74
2022/07/06 19:48:10;;;;;;;16.05;14.05;;;;;;;22.08;80.69;96772.78;5005079;28;20046;-75
2022/07/06 19:50:36;;;;;;;16.40;13.52;;;;;;;21.68;81.20;96737.00;4987083;28;20062;-74
2022/07/06 19:53:04;;;;;;;17.70;15.40;;;;;;;21.91;81.47;96788.25;5004227;28;20543;-74
2022/07/06 19:55:31;;;;;;;16.50;14.80;;;;;;;21.85;80.87;96781.59;5004276;28;20064;-75
2022/07/06 19:57:59;;;;;;;18.08;16.00;;;;;;;21.66;79.97;96754.38;5004880;28;20062;-70
2022/07/06 20:00:26;;;;;;;19.50;16.08;;;;;;;20.67;79.48;96618.53;5004592;28;20065;-69
2022/07/06 20:02:54;;;;;;;17.30;15.48;;;;;;;21.24;79.47;96699.31;5004450;28;20081;-71
2022/07/06 20:05:21;;;;;;;16.98;15.20;;;;;;;21.11;80.24;96706.16;4986662;28;20936;-75
2022/07/06 20:07:47;;;;;;;17.73;15.00;;;;;;;21.76;81.06;96781.50;5004715;28;20069;-70
2022/07/06 20:10:15;;;;;;;18.10;16.00;;;;;;;21.10;82.12;96708.19;4986943;28;20050;-74
2022/07/06 20:12:41;;;;;;;18.60;16.52;;;;;;;21.54;84.71;96800.25;4967293;28;20074;-70
2022/07/06 20:15:09;;;;;;;18.33;16.42;;;;;;;20.18;86.22;96624.75;4984330;28;20600;-76
2022/07/06 20:17:35;;;;;;;20.33;16.35;;;;;;;21.02;86.17;96741.38;4967789;28;20515;-75
2022/07/06 20:20:03;;;;;;;17.70;15.35;;;;;;;20.79;86.09;96710.66;4985273;28;20054;-75
2022/07/06 20:22:31;;;;;;;20.83;17.10;;;;;;;21.12;86.73;96764.84;4969886;28;20058;-73
2022/07/06 20:24:58;;;;;;;22.58;17.27;;;;;;;19.61;86.91;96531.88;4971114;28;20520;-76
2022/07/06 20:27:25;;;;;;;18.77;15.90;;;;;;;20.98;86.55;96746.34;4988156;28;20493;-70
2022/07/06 20:29:52;;;;;;;17.90;15.60;;;;;;;21.28;86.19;96787.34;4988414;28;20062;-70
2022/07/06 20:32:19;;;;;;;20.40;16.17;;;;;;;20.40;85.25;96648.25;4988067;28;20065;-74
2022/07/06 20:34:45;;;;;;;18.70;16.70;;;;;;;20.54;84.40;96656.28;4970677;28;20046;-70
2022/07/06 20:37:12;;;;;;;20.13;16.40;;;;;;;20.27;84.47;96636.16;4988005;28;20650;-76
2022/07/06 20:39:39;;;;;;;18.13;15.27;;;;;;;21.32;84.01;96796.50;4988009;28;20592;-70
2022/07/06 20:42:05;;;;;;;18.80;16.67;;;;;;;21.31;84.00;96783.63;4988160;28;20065;-75
2022/07/06 20:44:32;;;;;;;18.60;16.70;;;;;;;20.56;84.11;96681.97;4988085;28;20121;-76
2022/07/06 20:46:59;;;;;;;17.38;15.57;;;;;;;20.90;83.87;96739.31;4987860;28;20050;-70
2022/07/06 20:49:26;;;;;;;17.58;15.35;;;;;;;20.23;84.07;96655.16;4987895;28;20058;-69
2022/07/06 20:51:52;;;;;;;18.02;16.20;;;;;;;20.76;84.30;96744.53;4987903;28;20069;-74
2022/07/06 20:54:19;;;;;;;18.95;15.70;;;;;;;21.02;84.24;96790.53;4987791;28;20521;-69
2022/07/06 20:56:46;;;;;;;20.15;16.60;;;;;;;20.91;84.35;96802.06;4987852;28;20062;-76
2022/07/06 21:32:19;;;;;;;19.15;17.10;;;;;;;19.98;90.92;96806.84;4983665;28;20057;-74
